Philadelphia, Pennsylvania
Traffic Map
Current Weather Conditions
Philadelphia, Pennsylvania
Overcast Haze
Overcast
41°
Feels Like: 36°
Wind Chill: 36° Ceiling: 900
Heat Index: 41° Visibility: 4mi
Dew Point: 39° Wind: 8mph
Humidity: 93% Direction: 360° (N)
Pressure: 29.91in Gusts: 0mph
Raw Report DataKPHL 070954Z 36007KT 4SM BR BKN009 OVC015 05/04 A2991 RMK AO2 RAE34 SLP128 P0001 T00500039
Traffic Incident Summary
Active as of:
Severity:
Category:
InformationThere was an issue retrieving the traffic information for this location. Please try a different location or try again shortly.
Advertisements
Track Severe Weather on mobile